• Join FlightAware (Why Join?)
  • Login
  • US Flag 
07:49AM EDT


 

Airport Tracker/Info


-or-


 

Live Flight TrackerFlight Track Log ✈ JBU106 ✈ 10-May-2013 ✈ KLAX - KFLL

Flight Track Log - Related Links

Times and Time Zones

All times are in EDT time to prevent confusion due to time zone crossing. See the JBU106 flight status page for this flight to view local times or setup timezone preferences in your user account.

Time Position Orientation Groundspeed Altitude Reporting Facility
EDT Latitude Longitude Course Direction KTS MPH feet Rate Location/Type
05:52PM 33.9439 -118.4631 90° East 162 186 2,000  Level Los Angeles Center
05:53PM 33.9114 -118.5061 228° Southwest 227 261 2,800 1,620 Climbing Los Angeles Center
05:54PM 33.8306 -118.5097 182° South 270 311 5,400 2,580 Climbing Los Angeles Center
05:55PM 33.6780 -118.4848 101° East  Level FlightAware Approximate
05:55PM 33.7447 -118.5172 184° South 292 336 8,200  Level Los Angeles Center
05:56PM 33.6404 -118.3509 116° Southeast  Level FlightAware Approximate
05:56PM 33.6911 -118.4539 135° Southeast 288 331 10,700  Level Los Angeles Center
05:57PM 33.6333 -118.2104 90° East  Level FlightAware Approximate
05:57PM 33.6533 -118.3639 117° Southeast 301 346 12,300  Level Los Angeles Center
05:58PM 33.6439 -118.2600 96° East 327 376 14,100 1,500 Climbing Los Angeles Center
05:59PM 33.6444 -118.1169 90° East 358 412 15,500 1,500 Climbing Los Angeles Center
06:00PM 33.6447 -117.9897 90° East 382 440 17,300 1,680 Climbing Los Angeles Center
06:01PM 33.6442 -117.8578 90° East 395 455 19,100 1,560 Climbing Los Angeles Center
06:02PM 33.6433 -117.7239 90° East 402 463 20,600 1,440 Climbing Los Angeles Center
06:03PM 33.6428 -117.5869 90° East 410 472 22,100 1,380 Climbing Los Angeles Center
06:04PM 33.6419 -117.4192 90° East 420 483 23,500 1,200 Climbing Los Angeles Center
06:05PM 33.6406 -117.2756 91° East 431 496 24,700 1,200 Climbing Los Angeles Center
06:06PM 33.6392 -117.1289 91° East 438 504 26,000 1,080 Climbing Los Angeles Center
06:07PM 33.6383 -116.9828 90° East 440 506 27,000 900 Climbing Los Angeles Center
06:08PM 33.6719 -116.8247 76° East 446 513 27,900 960 Climbing Los Angeles Center
06:09PM 33.7031 -116.6783 76° East 450 518 29,100 1,020 Climbing Los Angeles Center
06:10PM 33.7328 -116.5342 76° East 447 514 30,100 960 Climbing Los Angeles Center
06:11PM 33.7636 -116.3911 75° East 443 510 31,100 1,020 Climbing Los Angeles Center
06:12PM 33.7919 -116.2481 77° East 440 506 32,300 900 Climbing Los Angeles Center
06:13PM 33.8267 -116.0767 76° East 438 504 33,000 300 Climbing Los Angeles Center
06:15PM 33.8539 -115.9378 77° East 430 495 33,000  Level Los Angeles Center
06:16PM 33.8822 -115.7964 76° East 433 498 33,000  Level Los Angeles Center
06:17PM 33.9106 -115.6536 77° East 437 503 33,000  Level Los Angeles Center
06:18PM 33.9386 -115.5094 77° East 442 509 33,000  Level Los Angeles Center
06:19PM 33.9678 -115.3667 76° East 439 505 33,000 -60 Level Los Angeles Center
06:20PM 34.0003 -115.1981 77° East 433 498 32,900 -60 Descending Los Angeles Center
06:21PM 34.0289 -115.0558 76° East 436 502 32,900  Level Los Angeles Center
06:22PM 34.0558 -114.9144 77° East 437 503 32,900  Level Los Angeles Center
06:23PM 34.0842 -114.7708 77° East 440 506 33,000  Climbing Los Angeles Center
06:24PM 34.1067 -114.6256 79° East 441 507 33,000  Level Los Angeles Center
06:25PM 34.1183 -114.4750 85° East 450 518 33,000  Level Los Angeles Center
06:26PM 34.1311 -114.2975 85° East 445 512 33,000  Level Los Angeles Center
06:26PM 34.1358 -114.2661 80° East 447 514 33,000  Level Albuquerque Center
06:27PM 34.1469 -114.1189 85° East 442 509 33,000  Level Albuquerque Center
06:28PM 34.1592 -113.9722 84° East 441 507 33,000  Level Albuquerque Center
06:29PM 34.1689 -113.8269 85° East 437 503 33,000  Level Albuquerque Center
06:30PM 34.1811 -113.6544 85° East 432 497 33,000  Level Albuquerque Center
06:31PM 34.1911 -113.5178 85° East 437 503 33,000  Level Albuquerque Center
06:32PM 34.2008 -113.3700 85° East 441 507 33,000  Level Albuquerque Center
06:33PM 34.2106 -113.2206 85° East 444 511 33,100  Climbing Albuquerque Center
06:34PM 34.2217 -113.0728 85° East 444 511 33,000 -120 Descending Albuquerque Center
06:35PM 34.2322 -112.8967 86° East 440 506 32,900  Descending Albuquerque Center
06:36PM 34.2433 -112.7492 85° East 440 506 33,000  Climbing Albuquerque Center
06:38PM 34.2528 -112.6000 86° East 443 510 33,000 420 Level Albuquerque Center
06:39PM 34.2586 -112.4514 87° East 444 511 33,900 780 Climbing Albuquerque Center
06:40PM 34.2631 -112.3047 88° East 439 505 34,600 480 Climbing Albuquerque Center
06:41PM 34.2678 -112.1572 88° East 438 504 35,000 180 Climbing Albuquerque Center
06:42PM 34.2733 -112.0108 87° East 436 502 35,000  Level Albuquerque Center
06:43PM 34.2786 -111.8625 87° East 437 503 35,000  Level Albuquerque Center
06:44PM 34.2831 -111.6822 88° East 441 507 35,000  Level Albuquerque Center
06:45PM 34.2878 -111.5342 88° East 439 505 35,000  Level Albuquerque Center
06:46PM 34.2925 -111.3861 88° East 439 505 35,000  Level Albuquerque Center
06:47PM 34.2967 -111.2400 88° East 437 503 35,000  Level Albuquerque Center
06:48PM 34.3006 -111.0942 88° East 435 501 35,000  Level Albuquerque Center
06:49PM 34.3039 -110.9503 88° East 431 496 35,000  Level Albuquerque Center
06:50PM 34.3083 -110.8044 88° East 432 497 35,000  Level Albuquerque Center
06:51PM 34.3131 -110.6606 88° East 431 496 35,000  Level Albuquerque Center
06:52PM 34.3169 -110.4858 88° East 432 497 35,000  Level Albuquerque Center
06:53PM 34.3192 -110.3503 89° East 437 503 35,000  Level Albuquerque Center
06:54PM 34.3219 -110.1872 89° East 437 503 35,000  Level Albuquerque Center
06:55PM 34.3247 -110.0494 89° East 431 496 35,000  Level Albuquerque Center
06:56PM 34.3272 -109.8892 89° East 428 493 35,000  Level Albuquerque Center
06:57PM 34.3294 -109.7522 89° East 428 493 35,000  Level Albuquerque Center
06:58PM 34.3319 -109.5906 89° East 429 494 35,000  Level Albuquerque Center
06:59PM 34.3336 -109.4503 89° East 433 498 35,100  Climbing Albuquerque Center
07:00PM 34.3350 -109.2897 89° East 431 496 35,000 -60 Descending Albuquerque Center
07:01PM 34.3364 -109.1533 89° East 427 491 35,000  Level Albuquerque Center
07:02PM 34.3389 -109.0169 89° East 426 490 35,000  Level Albuquerque Center
07:03PM 34.3400 -108.8572 89° East 426 490 35,000  Level Albuquerque Center
07:04PM 34.3406 -108.7200 90° East 426 490 35,000  Level Albuquerque Center
07:05PM 34.3414 -108.5578 90° East 430 495 35,000  Level Albuquerque Center
07:06PM 34.3431 -108.4303 89° East 430 495 35,000  Level Albuquerque Center
07:07PM 34.3425 -108.2886 90° East 426 490 35,000  Level Albuquerque Center
07:08PM 34.3439 -108.1200 89° East 422 486 35,000  Level Albuquerque Center
07:09PM 34.3431 -107.9769 90° East 425 489 35,000  Level Albuquerque Center
07:10PM 34.3436 -107.8303 90° East 434 499 35,000  Level Albuquerque Center
07:11PM 34.3425 -107.6828 90° East 439 505 35,100  Climbing Albuquerque Center
07:12PM 34.3428 -107.5369 90° East 439 505 35,000 -60 Descending Albuquerque Center
07:14PM 34.3417 -107.3919 90° East 436 502 35,000  Level Albuquerque Center
07:15PM 34.3408 -107.2197 90° East 431 496 35,000  Level Albuquerque Center
07:16PM 34.3403 -107.0736 90° East 436 502 35,000  Level Albuquerque Center
07:17PM 34.3381 -106.9244 91° East 444 511 35,000  Level Albuquerque Center
07:18PM 34.3361 -106.7692 91° East 457 526 35,000  Level Albuquerque Center
07:19PM 34.3353 -106.6164 90° East 460 529 35,100  Climbing Albuquerque Center
07:20PM 34.3328 -106.4642 91° East 457 526 35,000 -60 Descending Albuquerque Center
07:21PM 34.3303 -106.2808 91° East 458 527 35,000  Level Albuquerque Center
07:22PM 34.3289 -106.1375 91° East 452 520 35,000  Level Albuquerque Center
07:23PM 34.3272 -105.9828 91° East 455 524 35,000  Level Albuquerque Center
07:24PM 34.3222 -105.8286 92° East 455 524 35,000  Level Albuquerque Center
07:25PM 34.3219 -105.6528 90° East 448 516 35,000  Level Albuquerque Center
07:26PM 34.3183 -105.5017 92° East 446 513 35,000  Level Albuquerque Center
07:27PM 34.3150 -105.3511 91° East 445 512 35,000  Level Albuquerque Center
07:28PM 34.3111 -105.1964 92° East 452 520 35,000  Level Albuquerque Center
07:29PM 34.3081 -105.0425 91° East 455 524 35,100  Climbing Albuquerque Center
07:30PM 34.3047 -104.8875 91° East 457 526 35,000 -60 Descending Albuquerque Center
07:31PM 34.3008 -104.7322 92° East 458 527 35,000  Level Albuquerque Center
07:32PM 34.2969 -104.5747 92° East 464 534 35,000  Level Albuquerque Center
07:33PM 34.2925 -104.4186 92° East 464 534 35,000  Level Albuquerque Center
07:34PM 34.2878 -104.2383 92° East 458 527 35,000  Level Albuquerque Center
07:35PM 34.2831 -104.0836 92° East 458 527 35,000  Level Albuquerque Center
07:36PM 34.2778 -103.9269 92° East 462 532 35,000  Level Albuquerque Center
07:37PM 34.2728 -103.7708 92° East 462 532 35,000  Level Albuquerque Center
07:38PM 34.2678 -103.6122 92° East 467 537 35,100  Climbing Albuquerque Center
07:39PM 34.2622 -103.4553 92° East 466 536 35,000 -60 Descending Albuquerque Center
07:40PM 34.2556 -103.2983 93° East 466 536 35,000  Level Albuquerque Center
07:41PM 34.2500 -103.1400 92° East 468 539 35,000  Level Albuquerque Center
07:42PM 34.2428 -102.9786 93° East 469 540 35,000  Level Albuquerque Center
07:43PM 34.2367 -102.8211 93° East 470 541 35,000  Level Albuquerque Center
07:44PM 34.2303 -102.6628 93° East 472 543 35,000  Level Albuquerque Center
07:45PM 34.2219 -102.4736 93° East 473 544 35,000  Level Albuquerque Center
07:46PM 34.2150 -102.3153 93° East 474 545 35,000  Level Albuquerque Center
07:47PM 34.2078 -102.1561 93° East 476 548 35,000  Level Albuquerque Center
07:48PM 34.2039 -102.0589 93° East 475 547 35,000  Level Fort Worth Center
07:49PM 34.1944 -101.9153 95° East 482 555 35,000  Level Fort Worth Center
07:50PM 34.1878 -101.7544 93° East 476 548 35,000  Level Fort Worth Center
07:51PM 34.1811 -101.5783 93° East 482 555 35,000  Level Fort Worth Center
07:52PM 34.1714 -101.4322 95° East 482 555 35,000  Level Fort Worth Center
07:53PM 34.1622 -101.2536 93° East 476 548 35,000  Level Fort Worth Center
07:54PM 34.1542 -101.1078 94° East 488 562 35,000  Level Fort Worth Center
07:55PM 34.1447 -100.9267 94° East 488 562 35,000  Level Fort Worth Center
07:56PM 34.1347 -100.7631 94° East 488 562 35,000  Level Fort Worth Center
07:57PM 34.1264 -100.5997 93° East 483 556 35,000  Level Fort Worth Center
07:58PM 34.1158 -100.4364 94° East 483 556 35,000  Level Fort Worth Center
07:59PM 34.1069 -100.2881 94° East 483 556 35,000  Level Fort Worth Center
08:00PM 34.0958 -100.1272 95° East 483 556 35,000  Level Fort Worth Center
08:01PM 34.0847 -99.9564 94° East 488 562 35,000  Level Fort Worth Center
08:02PM 34.0736 -99.7881 95° East 493 567 35,000  Level Fort Worth Center
08:03PM 34.0619 -99.6172 95° East 498 573 35,000  Level Fort Worth Center
08:04PM 34.0503 -99.4464 95° East 503 579 35,000  Level Fort Worth Center
08:05PM 34.0383 -99.2733 95° East 504 580 35,000  Level Fort Worth Center
08:06PM 34.0261 -99.1075 95° East 504 580 35,000  Level Fort Worth Center
08:07PM 34.0117 -98.9294 96° East 510 587 35,000  Level Fort Worth Center
08:08PM 33.9992 -98.7464 95° East 510 587 35,000  Level Fort Worth Center
08:09PM 33.9822 -98.5783 97° East 505 581 35,000  Level Fort Worth Center
08:10PM 33.9208 -98.4222 115° Southeast 505 581 35,000  Level Fort Worth Center
08:11PM 33.8678 -98.2839 115° Southeast 499 574 35,000  Level Fort Worth Center
08:12PM 33.8019 -98.1158 115° Southeast 499 574 35,000  Level Fort Worth Center
08:13PM 33.7442 -97.9656 115° Southeast 499 574 35,100  Climbing Fort Worth Center
08:14PM 33.6844 -97.8128 115° Southeast 499 574 35,000 -60 Descending Fort Worth Center
08:15PM 33.6242 -97.6628 116° Southeast 499 574 35,000  Level Fort Worth Center
08:16PM 33.5597 -97.5106 117° Southeast 506 582 35,000  Level Fort Worth Center
08:17PM 33.4992 -97.3586 116° Southeast 508 585 35,000  Level Fort Worth Center
08:18PM 33.4386 -97.2069 116° Southeast 508 585 35,000  Level Fort Worth Center
08:19PM 33.3797 -97.0528 115° Southeast 508 585 35,000  Level Fort Worth Center
08:20PM 33.3186 -96.9014 116° Southeast 503 579 35,000  Level Fort Worth Center
08:21PM 33.2597 -96.7550 116° Southeast 503 579 35,000  Level Fort Worth Center
08:22PM 33.1981 -96.6042 116° Southeast 498 573 35,000  Level Fort Worth Center
08:23PM 33.1431 -96.4706 116° Southeast 498 573 35,000  Level Fort Worth Center
08:24PM 33.0747 -96.3078 117° Southeast 503 579 35,000  Level Fort Worth Center
08:25PM 33.0194 -96.1772 117° Southeast 492 566 35,100 420 Climbing Fort Worth Center
08:26PM 32.9508 -96.0122 116° Southeast 492 566 35,900 480 Climbing Fort Worth Center
08:27PM 32.8950 -95.8769 116° Southeast 492 566 36,100 300 Climbing Fort Worth Center
08:28PM 32.8239 -95.7078 117° Southeast 508 585 36,600 420 Climbing Fort Worth Center
08:29PM 32.7528 -95.5533 119° Southeast 508 585 37,000 180 Climbing Fort Worth Center
08:30PM 32.6878 -95.3992 117° Southeast 514 592 37,000  Level Fort Worth Center
08:31PM 32.6269 -95.2453 115° Southeast 514 592 37,000  Level Fort Worth Center
08:32PM 32.5594 -95.0892 117° Southeast 514 592 37,000  Level Fort Worth Center
08:33PM 32.4917 -94.9331 117° Southeast 514 592 37,000  Level Fort Worth Center
08:34PM 32.4278 -94.7750 116° Southeast 525 604 37,000  Level Fort Worth Center
08:35PM 32.3869 -94.6114 106° East 531 611 37,000  Level Fort Worth Center
08:36PM 32.3517 -94.4403 104° East 525 604 37,000  Level Fort Worth Center
08:37PM 32.3164 -94.2767 104° East 520 598 37,000  Level Fort Worth Center
08:38PM 32.2828 -94.1083 103° East 520 598 37,000  Level Fort Worth Center
08:39PM 32.2467 -93.9353 104° East 525 604 37,000  Level Fort Worth Center
08:40PM 32.2108 -93.7697 104° East 525 604 37,100  Climbing Fort Worth Center
08:42PM 32.1608 -93.5306 104° East 525 604 37,000 -60 Descending Houston Center
08:43PM 32.1247 -93.3642 104° East 524 603 37,000  Level Houston Center
08:44PM 32.0892 -93.1981 104° East 521 600 37,000  Level Houston Center
08:45PM 32.0464 -93.0025 104° East 513 590 37,000  Level Houston Center
08:46PM 32.0150 -92.8642 105° East 511 588 37,000 -60 Level Houston Center
08:47PM 31.9800 -92.7033 104° East 509 586 36,900 -60 Descending Houston Center
08:48PM 31.9319 -92.5144 107° East 504 580 36,900  Level Houston Center
08:49PM 31.8886 -92.3567 108° East 505 581 37,000  Climbing Houston Center
08:50PM 31.8464 -92.1986 107° East 506 582 37,000  Level Houston Center
08:51PM 31.8047 -92.0436 108° East 501 577 37,000  Level Houston Center
08:52PM 31.7631 -91.8908 108° East 502 578 37,000  Level Houston Center
08:53PM 31.7217 -91.7378 108° East 494 568 37,000  Level Houston Center
08:54PM 31.6789 -91.5822 108° East 495 570 37,000  Level Houston Center
08:55PM 31.6269 -91.3972 108° East 497 572 37,000  Level Houston Center
08:56PM 31.5850 -91.2428 108° East 497 572 37,000  Level Houston Center
08:57PM 31.5414 -91.0903 109° East 495 570 37,000  Level Houston Center
08:58PM 31.4967 -90.9378 109° East 494 568 37,000 -60 Level Houston Center
08:59PM 31.4553 -90.7856 108° East 491 565 36,900  Descending Houston Center
09:00PM 31.4119 -90.6333 108° East 493 567 37,000  Climbing Houston Center
09:01PM 31.3700 -90.4833 108° East 488 562 37,000 -60 Level Houston Center
09:02PM 31.3269 -90.3361 109° East 482 555 36,900 -60 Descending Houston Center
09:03PM 31.2956 -90.1853 104° East 479 551 36,900  Level Houston Center
09:04PM 31.2772 -90.0286 98° East 485 558 37,000  Climbing Houston Center
09:05PM 31.2547 -89.8425 98° East 482 555 36,900 -60 Descending Houston Center
09:06PM 31.2358 -89.6869 98° East 481 554 36,900  Level Houston Center
09:07PM 31.2150 -89.5300 99° East 486 559 37,000  Climbing Houston Center
09:08PM 31.1969 -89.3739 98° East 485 558 37,000  Level Houston Center
09:09PM 31.1747 -89.2122 99° East 498 573 37,000  Level Houston Center
09:10PM 31.1553 -89.0544 98° East 491 565 37,000  Level Houston Center
09:11PM 31.1333 -88.8883 99° East 494 568 37,000  Level Houston Center
09:12PM 31.1122 -88.7294 99° East 495 570 37,000  Level Houston Center
09:13PM 31.0914 -88.5767 99° East 496 571 37,000  Level Houston Center
09:14PM 31.0717 -88.4208 98° East 487 560 37,000 -60 Level Houston Center
09:15PM 31.0450 -88.2281 99° East 498 573 36,900  Descending Houston Center
09:16PM 31.0247 -88.0686 98° East 499 574 37,000  Climbing Houston Center
09:17PM 31.0028 -87.9092 99° East 499 574 37,000  Level Houston Center
09:18PM 30.9800 -87.7506 99° East 497 572 37,000  Level Houston Center
09:19PM 30.9603 -87.6017 99° East 494 568 37,000  Level Jacksonville Center
09:20PM 30.9389 -87.4433 99° East 494 568 37,000  Level Jacksonville Center
09:21PM 30.9150 -87.2872 100° East 489 563 37,000 -60 Level Jacksonville Center
09:22PM 30.8678 -87.1397 110° East 484 557 36,900  Descending Jacksonville Center
09:23PM 30.7928 -87.0108 124° Southeast 470 541 37,000  Climbing Jacksonville Center
09:24PM 30.7133 -86.8864 127° Southeast 475 547 37,000  Level Jacksonville Center
09:25PM 30.6378 -86.7603 125° Southeast 475 547 37,000  Level Jacksonville Center
09:26PM 30.5625 -86.6317 124° Southeast 486 559 37,000 -60 Level Jacksonville Center
09:27PM 30.4867 -86.5033 124° Southeast 486 559 36,900 -60 Descending Jacksonville Center
09:28PM 30.4089 -86.3753 125° Southeast 486 559 36,900  Level Jacksonville Center
09:29PM 30.3308 -86.2497 126° Southeast 486 559 36,900  Level Jacksonville Center
09:30PM 30.2547 -86.1219 125° Southeast 486 559 37,000  Climbing Jacksonville Center
09:31PM 30.1806 -86.0042 126° Southeast 480 552 37,000  Level Jacksonville Center
09:32PM 30.0981 -85.8694 125° Southeast 469 540 37,000  Level Jacksonville Center
09:33PM 30.0239 -85.7425 124° Southeast 469 540 37,000  Level Jacksonville Center
09:34PM 29.9472 -85.6203 126° Southeast 469 540 37,000  Level Jacksonville Center
09:35PM 29.8703 -85.4986 126° Southeast 474 545 37,000  Level Jacksonville Center
09:36PM 29.7975 -85.3792 125° Southeast 469 540 37,000  Level Jacksonville Center
09:37PM 29.7247 -85.2650 126° Southeast 459 528 37,000  Level Jacksonville Center
09:38PM 29.6517 -85.1486 126° Southeast 454 522 37,000 -60 Level Jacksonville Center
09:39PM 29.5806 -85.0347 126° Southeast 449 517 36,900 -60 Descending Jacksonville Center
09:40PM 29.5072 -84.9186 126° Southeast 449 517 36,900  Level Jacksonville Center
09:41PM 29.4339 -84.8000 125° Southeast 454 522 37,000  Climbing Jacksonville Center
09:42PM 29.3625 -84.6797 124° Southeast 454 522 37,000  Level Jacksonville Center
09:43PM 29.2869 -84.5639 127° Southeast 454 522 37,000 -60 Level Jacksonville Center
09:44PM 29.2111 -84.4439 126° Southeast 459 528 36,900  Descending Jacksonville Center
09:45PM 29.1353 -84.3261 126° Southeast 459 528 37,000  Climbing Jacksonville Center
09:46PM 29.0594 -84.2086 126° Southeast 459 528 37,000 -60 Level Jacksonville Center
09:47PM 28.9853 -84.0914 126° Southeast 459 528 36,900 -60 Descending Jacksonville Center
09:48PM 28.9072 -83.9694 126° Southeast 466 536 36,900  Level Jacksonville Center
09:49PM 28.8289 -83.8478 126° Southeast 466 536 37,000  Climbing Jacksonville Center
09:50PM 28.7544 -83.7308 126° Southeast 466 536 37,000 -60 Level Jacksonville Center
09:51PM 28.6781 -83.6142 127° Southeast 466 536 36,900  Descending Jacksonville Center
09:52PM 28.6033 -83.4981 126° Southeast 460 529 37,000  Climbing Jacksonville Center
09:54PM 28.4461 -83.2511 126° Southeast 476 548 37,000  Level Miami Center
09:55PM 28.3578 -83.1236 128° Southeast 471 542 37,000  Level Miami Center
09:56PM 28.2797 -82.9992 125° Southeast 478 550 37,000 -60 Level Miami Center
09:57PM 28.2036 -82.8797 126° Southeast 477 549 36,900 -60 Descending Miami Center
09:58PM 28.1231 -82.7578 127° Southeast 477 549 36,900  Level Miami Center
09:59PM 28.0561 -82.6647 129° Southeast 477 549 36,900  Level Miami Center
10:00PM 27.9522 -82.5492 135° Southeast 477 549 37,000  Climbing Miami Center
10:01PM 27.8403 -82.4731 149° Southeast 471 542 37,000  Level Miami Center
10:02PM 27.7047 -82.4219 162° South 462 532 37,000  Level Miami Center
10:03PM 27.5833 -82.3761 161° South 462 532 37,000  Level Miami Center
10:04PM 27.4744 -82.3336 161° South 462 532 37,000 -480 Level Miami Center
10:05PM 27.3508 -82.2925 164° South 469 540 36,100 -1,200 Descending Miami Center
10:06PM 27.2242 -82.2167 152° Southeast 469 540 34,600 -2,100 Descending Miami Center
10:07PM 27.1233 -82.1186 139° Southeast 468 539 31,900 -2,460 Descending Miami Center
10:08PM 27.0325 -82.0331 140° Southeast 478 550 29,700 -2,280 Descending Miami Center
10:09PM 26.9281 -81.9236 137° Southeast 478 550 27,400 -2,280 Descending Miami Center
10:10PM 26.8478 -81.8294 134° Southeast 465 535 25,200 -2,220 Descending Miami Center
10:11PM 26.7633 -81.7281 133° Southeast 452 520 23,000 -2,160 Descending Miami Center
10:12PM 26.6731 -81.6219 134° Southeast 440 506 20,900 -2,100 Descending Miami Center
10:13PM 26.5986 -81.5356 134° Southeast 429 494 18,900 -2,160 Descending Miami Center
10:14PM 26.5078 -81.4322 134° Southeast 422 486 16,600 -2,160 Descending Miami Center
10:15PM 26.4294 -81.3386 133° Southeast 417 480 14,600 -1,980 Descending Miami Center
10:16PM 26.3547 -81.2525 134° Southeast 405 466 12,700 -1,920 Descending Miami Center
10:17PM 26.2842 -81.1711 134° Southeast 386 444 10,800 -1,320 Descending Miami Center
10:18PM 26.2194 -81.0969 134° Southeast 364 419 10,100 -900 Descending Miami Center
10:19PM 26.1628 -81.0325 134° Southeast 317 365 9,000 -1,080 Descending Miami Center
10:20PM 26.1317 -80.9525 113° Southeast 276 318 8,000 -840 Descending Miami Center
10:21PM 26.1239 -80.9339 115° Southeast 290 334 8,000  Level Miami Center
10:21PM 26.1133 -80.8617 99° East 276 318 8,000  Level Miami Center
10:22PM 26.1011 -80.8453 130° Southeast 291 335 8,000  Level Miami Center
10:22PM 26.0883 -80.7778 102° East 281 323 8,000 -420 Level Miami Center
10:23PM 26.0767 -80.7450 112° Southeast 293 337 7,600 -1,620 Descending Miami Center
10:23PM 26.0781 -80.6917 88° East 281 323 6,400 -1,800 Descending Miami Center
10:24PM 26.0744 -80.6708 101° East 281 323 6,000 -540 Descending Miami Center
10:24PM 26.0803 -80.6108 84° East 274 315 5,900 -600 Descending Miami Center
10:25PM 26.0789 -80.5856 93° East 255 293 5,400 -900 Descending Miami Center
10:25PM 26.0800 -80.5347 89° East 260 299 5,000 -420 Descending Miami Center
10:26PM 26.0764 -80.5114 100° East 227 261 5,000 -120 Level Miami Center
10:26PM 26.0775 -80.4675 88° East 239 275 4,900 -300 Descending Miami Center
10:27PM 26.0739 -80.4442 100° East 210 242 4,700 -720 Descending Miami Center
10:27PM 26.0769 -80.4097 84° East 227 261 4,200 -1,320 Descending Miami Center
10:28PM 26.0756 -80.3794 93° East 212 244 3,400 -1,260 Descending Miami Center
10:29PM 26.0750 -80.3100 90° East 202 232 2,400 -960 Descending Miami Center
10:30PM 26.0742 -80.2569 91° East 193 222 1,500 -900 Descending Miami Center
10:31PM 26.0736 -80.1992 91° East 133 153 500 -840 Descending Miami Center
10:33PM 26.0667 -80.1500 180° South  Level FlightAware Approximate
10:40PM 26.0726 -80.1527 180° South  Level Estimated